Time;durP1;ratioP1;P1;durP2;ratioP2;P2;SDS_P1;SDS_P2;PMS_P1;PMS_P2;Temp;Humidity;BMP_temperature;BMP_pressure;BME280_temperature;BME280_humidity;BME280_pressure;Samples;Min_cycle;Max_cycle;Signal;HPM_P1;HPM_P2
2022/05/14 00:00:34;;;;;;;3.30;1.80;;;14.10;99.20;;;;;;6111244;23;20451;-87
2022/05/14 00:03:01;;;;;;;3.13;1.60;;;14.10;99.30;;;;;;6118649;23;20268;-87
2022/05/14 00:05:28;;;;;;;3.20;1.75;;;14.10;99.10;;;;;;6120355;23;20279;-87
2022/05/14 00:07:56;;;;;;;2.37;1.50;;;14.10;99.10;;;;;;6119836;23;20448;-87
2022/05/14 00:10:25;;;;;;;3.33;1.70;;;14.10;99.10;;;;;;6119489;23;20464;-86
2022/05/14 00:13:06;;;;;;;3.23;1.90;;;14.10;99.30;;;;;;6104754;23;20440;-87
2022/05/14 00:15:37;;;;;;;4.27;2.20;;;14.20;99.90;;;;;;6118563;23;20443;-87
2022/05/14 00:18:06;;;;;;;2.77;2.30;;;14.10;99.90;;;;;;6117258;23;20900;-87
2022/05/14 00:20:35;;;;;;;2.33;2.03;;;14.20;99.90;;;;;;6110598;23;21185;-86
2022/05/14 00:23:02;;;;;;;2.97;2.78;;;14.10;99.90;;;;;;6112377;23;20469;-86
2022/05/14 00:25:29;;;;;;;2.97;2.37;;;14.10;99.90;;;;;;6118211;23;20647;-87
2022/05/14 00:27:56;;;;;;;2.90;2.60;;;14.00;99.90;;;;;;6120540;23;20447;-87
2022/05/14 00:30:27;;;;;;;4.07;2.80;;;14.00;99.90;;;;;;6110863;23;20463;-86
2022/05/14 00:32:55;;;;;;;2.67;2.43;;;13.90;99.90;;;;;;6120487;23;20216;-87
2022/05/14 00:35:23;;;;;;;4.93;2.80;;;13.80;99.90;;;;;;6116342;23;20447;-87
2022/05/14 00:37:50;;;;;;;3.87;2.70;;;13.70;99.90;;;;;;6120987;23;20473;-86
2022/05/14 00:40:21;;;;;;;3.90;2.97;;;13.60;99.90;;;;;;6109807;23;20532;-87
2022/05/14 00:42:48;;;;;;;8.38;3.30;;;13.60;99.90;;;;;;6119190;23;20462;-86
2022/05/14 00:45:17;;;;;;;3.55;3.00;;;13.50;99.90;;;;;;6113924;23;20192;-86
2022/05/14 00:47:46;;;;;;;3.17;2.83;;;13.40;99.90;;;;;;6120564;23;20217;-86
2022/05/14 00:50:21;;;;;;;3.67;3.20;;;13.40;99.90;;;;;;6118840;23;20557;-86
2022/05/14 00:52:49;;;;;;;3.78;3.20;;;13.30;99.90;;;;;;6119574;23;20449;-85
2022/05/14 00:55:17;;;;;;;3.78;2.92;;;13.30;99.90;;;;;;6119520;23;20229;-87
2022/05/14 00:57:46;;;;;;;3.23;2.87;;;13.20;99.90;;;;;;6120195;23;20266;-87
2022/05/14 01:00:16;;;;;;;5.50;3.00;;;13.20;99.90;;;;;;6117476;23;20805;-87
2022/05/14 01:02:43;;;;;;;4.85;3.40;;;13.20;99.90;;;;;;6111953;23;20802;-86
2022/05/14 01:05:12;;;;;;;4.00;3.40;;;13.20;99.90;;;;;;6120154;23;20188;-86
2022/05/14 01:07:41;;;;;;;5.60;3.85;;;13.10;99.90;;;;;;6119845;23;20454;-86
2022/05/14 01:10:11;;;;;;;5.80;4.47;;;13.10;99.90;;;;;;6118499;23;20290;-87
2022/05/14 01:12:44;;;;;;;6.55;4.30;;;13.00;99.90;;;;;;6110635;23;20192;-87
2022/05/14 01:15:14;;;;;;;8.25;5.85;;;12.90;99.90;;;;;;6118180;23;20210;-86
2022/05/14 01:17:41;;;;;;;5.90;4.90;;;12.80;99.90;;;;;;6118355;23;20192;-86
2022/05/14 01:20:09;;;;;;;5.40;4.90;;;12.80;99.90;;;;;;6119591;23;20552;-86
2022/05/14 01:22:53;;;;;;;6.07;5.47;;;12.70;99.90;;;;;;6113442;23;20586;-86
2022/05/14 01:28:12;;;;;;;7.07;5.20;;;12.60;99.90;;;;;;6118788;23;20266;-86
2022/05/14 01:30:47;;;;;;;6.18;5.57;;;12.50;99.90;;;;;;6120727;23;20210;-86
2022/05/14 01:33:14;;;;;;;6.00;5.30;;;12.50;99.90;;;;;;6107492;23;20699;-84
2022/05/14 01:35:42;;;;;;;6.50;5.90;;;12.40;99.90;;;;;;6118517;23;20600;-86
2022/05/14 01:38:10;;;;;;;5.40;4.90;;;12.30;99.90;;;;;;6119005;23;20194;-86
2022/05/14 01:40:38;;;;;;;6.10;5.28;;;12.30;99.90;;;;;;6118224;23;20313;-86
2022/05/14 01:43:05;;;;;;;5.30;4.82;;;12.20;99.90;;;;;;6119252;23;20298;-85
2022/05/14 01:45:35;;;;;;;5.18;4.68;;;12.10;99.90;;;;;;6120490;23;20711;-86
2022/05/14 01:48:02;;;;;;;6.03;5.35;;;12.00;99.90;;;;;;6117032;23;20191;-86
2022/05/14 01:50:29;;;;;;;6.45;4.72;;;11.90;99.90;;;;;;6120687;23;20247;-85
2022/05/14 01:52:56;;;;;;;7.55;5.05;;;11.80;99.90;;;;;;6102142;23;20727;-86
2022/05/14 01:55:23;;;;;;;5.30;4.70;;;11.70;99.90;;;;;;6119450;23;20282;-86
2022/05/14 01:57:50;;;;;;;5.63;4.95;;;11.70;99.90;;;;;;6119515;23;20218;-86
2022/05/14 02:00:18;;;;;;;6.00;5.40;;;11.60;99.90;;;;;;6119663;23;20245;-86
2022/05/14 02:02:47;;;;;;;5.88;5.30;;;11.60;99.90;;;;;;6113889;23;20211;-86
2022/05/14 02:05:14;;;;;;;6.90;6.15;;;11.60;99.90;;;;;;6118582;23;20271;-86
2022/05/14 02:07:42;;;;;;;6.80;6.05;;;11.50;99.90;;;;;;6118229;23;20599;-86
2022/05/14 02:10:10;;;;;;;6.72;5.60;;;11.50;99.90;;;;;;6119593;23;20291;-86
2022/05/14 02:12:40;;;;;;;7.22;5.13;;;11.50;99.90;;;;;;6118040;23;20284;-86
2022/05/14 02:15:07;;;;;;;5.85;5.20;;;11.40;99.90;;;;;;6108748;23;20629;-85
2022/05/14 02:17:34;;;;;;;6.47;5.32;;;11.40;99.90;;;;;;6118199;23;20243;-86
2022/05/14 02:20:04;;;;;;;8.38;6.05;;;11.30;99.90;;;;;;6115288;23;20299;-86
2022/05/14 02:22:30;;;;;;;7.35;6.20;;;11.20;99.90;;;;;;6117232;23;20197;-86
2022/05/14 02:24:57;;;;;;;6.68;5.05;;;11.10;99.90;;;;;;6118653;23;20197;-86
2022/05/14 02:27:24;;;;;;;6.05;5.40;;;11.00;99.90;;;;;;6119580;23;20228;-86
2022/05/14 02:29:51;;;;;;;6.60;6.00;;;10.90;99.90;;;;;;6119004;23;20289;-86
2022/05/14 02:32:19;;;;;;;7.80;5.43;;;10.90;99.90;;;;;;6118132;23;20280;-85
2022/05/14 02:34:47;;;;;;;7.00;6.00;;;10.90;99.90;;;;;;6113410;23;20222;-85
2022/05/14 02:37:17;;;;;;;7.53;6.35;;;10.90;99.90;;;;;;6103770;23;20195;-85
2022/05/14 02:39:44;;;;;;;6.40;5.80;;;10.90;99.90;;;;;;6113258;23;20275;-85
2022/05/14 02:42:12;;;;;;;7.82;6.80;;;10.90;99.90;;;;;;6119631;23;20221;-86
2022/05/14 02:44:39;;;;;;;7.45;5.68;;;10.90;99.90;;;;;;6114338;23;20585;-84
2022/05/14 02:47:06;;;;;;;6.85;6.25;;;10.90;99.90;;;;;;6120247;23;20236;-85
2022/05/14 02:49:33;;;;;;;6.97;5.65;;;10.90;99.90;;;;;;6114664;23;20550;-86
2022/05/14 02:52:00;;;;;;;6.90;6.15;;;10.90;99.90;;;;;;6114140;23;20193;-86
2022/05/14 02:54:28;;;;;;;10.57;6.93;;;10.90;99.90;;;;;;6118861;23;20203;-85
2022/05/14 02:56:56;;;;;;;7.82;7.03;;;10.90;99.90;;;;;;6120747;23;20194;-85
2022/05/14 02:59:23;;;;;;;8.10;7.13;;;10.90;99.90;;;;;;6118342;23;20238;-85
2022/05/14 03:01:50;;;;;;;7.75;7.07;;;10.90;99.90;;;;;;6113640;23;20691;-85
2022/05/14 03:04:18;;;;;;;8.55;6.50;;;10.90;99.90;;;;;;6119843;23;20685;-85
2022/05/14 03:06:45;;;;;;;8.10;7.30;;;10.90;99.90;;;;;;6120687;23;20629;-86
2022/05/14 03:09:12;;;;;;;7.53;6.82;;;10.90;99.90;;;;;;6120267;23;20266;-85
2022/05/14 03:11:41;;;;;;;8.15;7.35;;;10.90;99.90;;;;;;6119704;23;20757;-86
2022/05/14 03:14:09;;;;;;;7.88;7.20;;;10.90;99.90;;;;;;6115587;23;20322;-84
2022/05/14 03:16:36;;;;;;;8.75;7.82;;;10.90;99.90;;;;;;6110689;23;20688;-85
2022/05/14 03:19:03;;;;;;;14.75;8.15;;;10.80;99.90;;;;;;6108372;23;20550;-85
2022/05/14 03:21:30;;;;;;;8.00;7.30;;;10.80;99.90;;;;;;6110519;23;20201;-85
2022/05/14 03:23:57;;;;;;;8.45;6.68;;;10.80;99.90;;;;;;6118150;23;20359;-85
2022/05/14 03:26:24;;;;;;;7.55;6.78;;;10.80;99.90;;;;;;6120817;23;20831;-86
2022/05/14 03:28:53;;;;;;;7.55;6.75;;;10.80;99.90;;;;;;6117955;23;20243;-85
2022/05/14 03:31:20;;;;;;;7.50;6.80;;;10.80;99.90;;;;;;6120630;23;20270;-85
2022/05/14 03:33:47;;;;;;;10.13;7.40;;;10.80;99.90;;;;;;6118194;23;20197;-85
2022/05/14 03:36:14;;;;;;;7.35;6.70;;;10.80;99.90;;;;;;6120386;23;20663;-86
2022/05/14 03:38:41;;;;;;;9.35;8.27;;;10.70;99.90;;;;;;6111082;23;20553;-85
2022/05/14 03:41:08;;;;;;;7.13;6.50;;;10.70;99.90;;;;;;6119521;23;20298;-85
2022/05/14 03:43:37;;;;;;;8.23;7.53;;;10.70;99.90;;;;;;6117970;23;20210;-85
2022/05/14 03:46:05;;;;;;;7.85;7.05;;;10.70;99.90;;;;;;6112472;23;20657;-85
2022/05/14 03:48:32;;;;;;;7.53;6.82;;;10.60;99.90;;;;;;6120081;23;20191;-85
2022/05/14 03:50:59;;;;;;;7.20;6.60;;;10.60;99.90;;;;;;6118463;23;20696;-85
2022/05/14 03:53:26;;;;;;;8.63;7.82;;;10.60;99.90;;;;;;6118873;23;20197;-85
2022/05/14 03:55:53;;;;;;;9.00;8.20;;;10.60;99.90;;;;;;6118253;23;20605;-85
2022/05/14 03:58:20;;;;;;;8.57;7.88;;;10.60;99.90;;;;;;6111004;23;20203;-85
2022/05/14 04:00:47;;;;;;;11.45;9.18;;;10.60;99.90;;;;;;6118327;23;20685;-86
2022/05/14 04:03:16;;;;;;;9.50;8.73;;;10.60;99.90;;;;;;6116534;23;20216;-86
2022/05/14 04:05:43;;;;;;;9.35;8.48;;;10.50;99.90;;;;;;6118953;23;20223;-86
2022/05/14 04:08:10;;;;;;;9.85;9.00;;;10.50;99.90;;;;;;6121146;23;20214;-85
2022/05/14 04:10:37;;;;;;;8.77;7.93;;;10.50;99.90;;;;;;6112946;23;20218;-85
2022/05/14 04:13:04;;;;;;;9.15;8.25;;;10.40;99.90;;;;;;6110083;23;20190;-86
2022/05/14 04:15:31;;;;;;;9.35;8.43;;;10.40;99.90;;;;;;6118982;23;20193;-84
2022/05/14 04:17:58;;;;;;;13.40;8.20;;;10.30;99.90;;;;;;6102847;23;20224;-85
2022/05/14 04:20:27;;;;;;;8.13;7.53;;;10.40;99.90;;;;;;6114591;23;20955;-84
2022/05/14 04:22:55;;;;;;;9.43;7.95;;;10.30;99.90;;;;;;6117679;23;20217;-85
2022/05/14 04:25:22;;;;;;;10.50;8.43;;;10.40;99.90;;;;;;6117159;23;20852;-86
2022/05/14 04:27:49;;;;;;;9.32;8.32;;;10.30;99.90;;;;;;6117788;23;20270;-84
2022/05/14 04:30:18;;;;;;;9.77;8.30;;;10.30;99.90;;;;;;6117894;23;20329;-84
2022/05/14 04:32:45;;;;;;;9.90;7.85;;;10.40;99.90;;;;;;6114717;23;20198;-84
2022/05/14 04:35:14;;;;;;;8.90;7.68;;;10.20;99.90;;;;;;6115465;23;20217;-83
2022/05/14 04:37:42;;;;;;;9.02;7.55;;;10.30;99.90;;;;;;6117200;23;20215;-84
2022/05/14 04:40:11;;;;;;;8.80;7.35;;;10.20;99.90;;;;;;6119815;23;20237;-85
2022/05/14 04:42:39;;;;;;;8.10;7.30;;;10.20;99.90;;;;;;6116704;23;20190;-85
2022/05/14 04:45:08;;;;;;;7.55;6.40;;;10.20;99.90;;;;;;6118027;23;20696;-86
2022/05/14 04:47:35;;;;;;;7.88;7.03;;;10.20;99.90;;;;;;6117802;23;20190;-84
2022/05/14 04:50:02;;;;;;;7.53;6.82;;;10.30;99.90;;;;;;6117531;23;20214;-87
2022/05/14 04:52:29;;;;;;;7.72;6.95;;;10.20;99.90;;;;;;6118396;23;20853;-78
2022/05/14 04:54:58;;;;;;;7.22;6.63;;;10.30;99.90;;;;;;6107001;23;20202;-79
2022/05/14 04:57:25;;;;;;;8.52;7.55;;;10.30;99.90;;;;;;6110075;23;20197;-80
2022/05/14 04:59:53;;;;;;;7.43;6.72;;;10.40;99.90;;;;;;6120042;23;20222;-77
2022/05/14 05:05:07;;;;;;;6.95;6.35;;;10.50;99.90;;;;;;6118645;23;20292;-81
2022/05/14 05:07:33;;;;;;;6.70;5.97;;;10.50;99.90;;;;;;6119661;23;20200;-79
2022/05/14 05:10:02;;;;;;;7.30;6.20;;;10.60;99.90;;;;;;6120498;23;20230;-80
2022/05/14 05:12:29;;;;;;;6.45;5.85;;;10.60;99.90;;;;;;6117714;23;20197;-79
2022/05/14 05:14:55;;;;;;;6.97;6.20;;;10.60;99.90;;;;;;6119803;23;20224;-80
2022/05/14 05:17:22;;;;;;;8.48;7.00;;;10.70;99.90;;;;;;6119401;23;21259;-80
2022/05/14 05:19:49;;;;;;;8.23;6.00;;;10.70;99.90;;;;;;6119926;23;20292;-81
2022/05/14 05:22:17;;;;;;;6.80;6.30;;;10.70;99.90;;;;;;6118971;23;20275;-83
2022/05/14 05:24:44;;;;;;;6.53;5.82;;;10.80;99.90;;;;;;6118966;23;20229;-85
2022/05/14 05:27:13;;;;;;;7.05;5.93;;;10.90;99.90;;;;;;6118129;23;20218;-85
2022/05/14 05:29:40;;;;;;;6.30;5.70;;;10.90;99.90;;;;;;6114347;23;20578;-86
2022/05/14 05:32:08;;;;;;;6.95;6.35;;;11.00;99.90;;;;;;6117779;23;20215;-85
2022/05/14 05:34:35;;;;;;;6.90;6.38;;;11.10;99.90;;;;;;6119028;23;20224;-85
2022/05/14 05:37:02;;;;;;;8.15;5.90;;;11.20;99.90;;;;;;6121114;23;20650;-85
2022/05/14 05:39:29;;;;;;;7.25;6.15;;;11.30;99.90;;;;;;6118974;23;20612;-86
2022/05/14 05:41:58;;;;;;;6.32;5.80;;;11.40;99.90;;;;;;6118592;23;20274;-85
2022/05/14 05:44:27;;;;;;;6.63;6.00;;;11.50;99.90;;;;;;6119420;23;20217;-86
2022/05/14 05:46:55;;;;;;;6.22;5.68;;;11.60;99.90;;;;;;6119028;23;20191;-86
2022/05/14 05:49:22;;;;;;;5.97;5.47;;;11.70;99.90;;;;;;6117530;23;20238;-85
2022/05/14 05:51:49;;;;;;;6.30;5.70;;;11.80;99.90;;;;;;6117840;23;20234;-85
2022/05/14 05:57:01;;;;;;;7.00;5.30;;;12.00;99.90;;;;;;6120729;23;20187;-86
2022/05/14 05:59:32;;;;;;;6.20;5.60;;;12.20;99.90;;;;;;6101731;23;20260;-85
2022/05/14 06:02:00;;;;;;;7.10;6.13;;;12.30;99.90;;;;;;6121308;23;20265;-87
2022/05/14 06:04:27;;;;;;;8.05;5.80;;;12.40;99.90;;;;;;6125588;23;20227;-87
2022/05/14 06:06:54;;;;;;;6.18;5.57;;;12.40;99.90;;;;;;6122731;23;20211;-86
2022/05/14 06:09:22;;;;;;;7.43;5.85;;;12.60;99.90;;;;;;6121979;23;20256;-87
2022/05/14 06:11:50;;;;;;;5.85;5.35;;;12.60;99.90;;;;;;6078812;23;20242;-89
2022/05/14 06:14:17;;;;;;;5.50;5.10;;;12.80;99.90;;;;;;6108798;23;20187;-88
2022/05/14 06:16:46;;;;;;;7.82;5.10;;;12.90;99.90;;;;;;6125920;23;20278;-87
2022/05/14 06:19:13;;;;;;;7.20;5.50;;;13.00;99.90;;;;;;6120420;23;20242;-88
2022/05/14 06:21:40;;;;;;;5.55;5.05;;;13.20;99.90;;;;;;6115044;23;20199;-87
2022/05/14 06:24:09;;;;;;;5.28;4.72;;;13.30;99.90;;;;;;6116262;23;20246;-88
2022/05/14 06:26:37;;;;;;;7.13;5.53;;;13.50;99.90;;;;;;6103221;23;20279;-88
2022/05/14 06:29:04;;;;;;;5.18;4.68;;;13.60;99.90;;;;;;6120870;23;20728;-89
2022/05/14 06:31:32;;;;;;;4.95;4.30;;;13.70;99.90;;;;;;6117044;23;20285;-89
2022/05/14 06:34:00;;;;;;;4.75;4.25;;;13.80;99.90;;;;;;6115932;23;20286;-89
2022/05/14 06:36:27;;;;;;;5.13;4.38;;;13.80;99.90;;;;;;6114422;23;20184;-89
2022/05/14 06:38:55;;;;;;;5.25;4.75;;;14.00;99.90;;;;;;6116481;23;20302;-88
2022/05/14 06:41:22;;;;;;;6.75;4.57;;;14.10;99.90;;;;;;6113557;23;20206;-88
2022/05/14 06:43:49;;;;;;;5.07;4.30;;;14.30;99.90;;;;;;6118763;23;20274;-88
2022/05/14 06:46:16;;;;;;;4.30;3.90;;;14.40;99.90;;;;;;6116413;23;20529;-81
2022/05/14 06:48:43;;;;;;;8.13;4.70;;;14.50;99.90;;;;;;6118187;23;21079;-80
2022/05/14 06:51:16;;;;;;;5.33;3.83;;;14.70;99.90;;;;;;6113743;23;20445;-86
2022/05/14 06:53:44;;;;;;;7.40;4.00;;;14.90;99.90;;;;;;6112739;23;20444;-83
2022/05/14 06:56:13;;;;;;;3.90;3.50;;;15.10;99.90;;;;;;6117207;23;20448;-86
2022/05/14 06:58:42;;;;;;;5.13;3.80;;;15.20;99.90;;;;;;6120293;23;20467;-87
2022/05/14 07:01:10;;;;;;;5.07;3.50;;;15.40;99.90;;;;;;6107351;23;20947;-90
2022/05/14 07:06:41;;;;;;;3.87;3.03;;;15.90;99.90;;;;;;6118726;23;20523;-87
2022/05/14 07:09:11;;;;;;;4.33;3.47;;;16.20;99.90;;;;;;6117668;23;20469;-86
2022/05/14 07:11:40;;;;;;;3.43;3.03;;;16.40;99.90;;;;;;6117461;23;20603;-83
2022/05/14 07:14:07;;;;;;;6.70;3.07;;;16.80;99.90;;;;;;6117702;23;20532;-82
2022/05/14 07:16:34;;;;;;;3.70;2.60;;;17.10;99.90;;;;;;6112875;23;20476;-82
2022/05/14 07:19:02;;;;;;;2.90;2.47;;;17.50;99.90;;;;;;6118611;23;20854;-82
2022/05/14 07:21:30;;;;;;;4.80;2.73;;;18.10;99.90;;;;;;6114050;23;20442;-82
2022/05/14 07:23:57;;;;;;;3.83;2.37;;;18.90;99.90;;;;;;6114647;23;20940;-82
2022/05/14 07:26:27;;;;;;;3.87;2.40;;;19.60;99.90;;;;;;6116776;23;20516;-82
2022/05/14 07:28:54;;;;;;;3.10;2.40;;;20.40;99.90;;;;;;6120322;23;20923;-82
2022/05/14 07:31:21;;;;;;;3.70;2.83;;;21.10;99.90;;;;;;6104100;23;20439;-82
2022/05/14 07:33:49;;;;;;;5.67;2.90;;;21.40;99.90;;;;;;6113193;23;20537;-82
2022/05/14 07:36:19;;;;;;;4.47;2.37;;;21.90;99.90;;;;;;6111624;23;20860;-83
2022/05/14 07:38:48;;;;;;;2.90;2.30;;;22.30;99.90;;;;;;6117366;23;20463;-84
2022/05/14 07:41:16;;;;;;;5.40;2.10;;;22.80;99.70;;;;;;6108876;23;20451;-83
2022/05/14 07:43:48;;;;;;;4.73;2.50;;;23.30;99.10;;;;;;6117988;23;20516;-83
2022/05/14 07:46:18;;;;;;;2.60;2.37;;;24.00;97.20;;;;;;6117267;23;20467;-83
2022/05/14 07:48:47;;;;;;;2.80;2.30;;;24.50;95.10;;;;;;6116559;23;20794;-83
2022/05/14 07:51:14;;;;;;;4.43;2.70;;;25.00;94.00;;;;;;6110523;23;20495;-84
2022/05/14 07:53:41;;;;;;;2.90;2.30;;;25.60;92.70;;;;;;6113435;23;20461;-84
2022/05/14 07:56:10;;;;;;;3.83;2.43;;;26.30;91.30;;;;;;6110524;23;20516;-84
2022/05/14 07:58:38;;;;;;;4.70;2.57;;;26.90;88.30;;;;;;6111432;23;20494;-81
2022/05/14 08:01:05;;;;;;;3.37;2.30;;;27.20;85.30;;;;;;6109622;23;20434;-82
2022/05/14 08:03:32;;;;;;;3.93;2.83;;;27.30;83.70;;;;;;6109657;23;20438;-81
2022/05/14 08:06:00;;;;;;;2.83;2.10;;;27.40;81.60;;;;;;6119459;23;20454;-82
2022/05/14 08:08:28;;;;;;;2.83;2.60;;;27.30;81.30;;;;;;6113944;23;20541;-81
2022/05/14 08:10:56;;;;;;;4.33;2.60;;;27.40;78.50;;;;;;6106985;23;20438;-81
2022/05/14 08:13:26;;;;;;;4.20;2.40;;;27.80;77.40;;;;;;6116337;23;20485;-82
2022/05/14 08:15:54;;;;;;;2.90;2.00;;;28.20;77.70;;;;;;6101642;23;21003;-81
2022/05/14 08:18:22;;;;;;;4.33;2.17;;;28.30;73.50;;;;;;6104358;23;20499;-82
2022/05/14 08:20:51;;;;;;;3.97;1.90;;;28.60;71.60;;;;;;6115708;23;21387;-83
2022/05/14 08:26:04;;;;;;;2.17;1.80;;;28.80;68.10;;;;;;6107992;23;20468;-83
2022/05/14 08:28:33;;;;;;;3.83;2.20;;;29.30;67.90;;;;;;6118435;23;20457;-82
2022/05/14 08:31:00;;;;;;;4.03;2.00;;;29.30;66.80;;;;;;6111599;23;20437;-83
2022/05/14 08:33:27;;;;;;;1.97;1.63;;;29.70;65.30;;;;;;6115107;23;20437;-82
2022/05/14 08:35:55;;;;;;;3.07;2.00;;;29.90;63.90;;;;;;6115717;23;20849;-83
2022/05/14 08:38:23;;;;;;;2.47;1.83;;;30.20;62.50;;;;;;6117772;23;20532;-82
2022/05/14 08:40:56;;;;;;;2.47;1.60;;;30.10;62.00;;;;;;6095763;23;20454;-83
2022/05/14 08:43:30;;;;;;;3.90;2.10;;;30.30;61.50;;;;;;6101666;23;20433;-83
2022/05/14 08:45:59;;;;;;;3.30;1.40;;;30.20;60.80;;;;;;6113762;23;20552;-83
2022/05/14 08:48:33;;;;;;;2.80;1.67;;;30.50;59.70;;;;;;6113029;23;20608;-82
2022/05/14 08:51:04;;;;;;;4.57;2.10;;;30.60;58.60;;;;;;6113349;23;20867;-83
2022/05/14 08:53:33;;;;;;;2.77;1.70;;;30.60;58.10;;;;;;6114064;23;20444;-85
2022/05/14 08:56:12;;;;;;;3.27;1.73;;;31.00;57.60;;;;;;6114879;23;20513;-86
2022/05/14 08:59:03;;;;;;;2.33;1.70;;;31.10;57.10;;;;;;6113525;23;20512;-85
2022/05/14 09:01:34;;;;;;;5.03;1.93;;;31.30;56.30;;;;;;6120420;23;20510;-86
2022/05/14 09:04:01;;;;;;;2.80;1.47;;;31.90;55.10;;;;;;6119372;23;20449;-85
2022/05/14 09:06:28;;;;;;;2.17;1.20;;;32.00;54.10;;;;;;6113817;23;20500;-87
2022/05/14 09:08:55;;;;;;;3.07;1.50;;;32.00;54.50;;;;;;6118360;23;20476;-86
2022/05/14 09:11:25;;;;;;;3.30;1.60;;;32.00;53.70;;;;;;6114963;23;20499;-87
2022/05/14 09:13:55;;;;;;;2.33;1.10;;;32.00;53.70;;;;;;6111249;23;20437;-88
2022/05/14 09:16:28;;;;;;;3.07;1.80;;;32.00;53.00;;;;;;6116055;23;21201;-88
2022/05/14 09:18:56;;;;;;;1.93;1.30;;;31.60;54.00;;;;;;6113429;23;20469;-87
2022/05/14 09:21:26;;;;;;;2.23;1.60;;;31.40;53.40;;;;;;6121037;23;20438;-84
2022/05/14 09:23:56;;;;;;;2.47;1.40;;;31.80;53.00;;;;;;6120498;23;20533;-90
2022/05/14 09:26:33;;;;;;;1.40;1.30;;;30.70;52.30;;;;;;6120746;23;20476;-87
2022/05/14 09:29:14;;;;;;;3.33;1.40;;;30.30;54.30;;;;;;6119748;23;20473;-87
2022/05/14 09:31:51;;;;;;;3.13;1.53;;;30.00;55.00;;;;;;6121304;23;20426;-87
2022/05/14 09:34:21;;;;;;;2.40;1.30;;;30.10;54.70;;;;;;6118443;23;20899;-89
2022/05/14 09:36:51;;;;;;;3.57;1.60;;;30.40;55.20;;;;;;6112223;23;20468;-87
2022/05/14 09:39:22;;;;;;;3.93;1.40;;;31.10;53.60;;;;;;6117338;23;20516;-87
2022/05/14 09:41:52;;;;;;;2.90;1.60;;;31.90;52.80;;;;;;6107394;23;20444;-86
2022/05/14 09:44:22;;;;;;;3.93;1.40;;;31.80;52.10;;;;;;6114286;23;20437;-87
2022/05/14 09:46:50;;;;;;;3.30;1.47;;;31.50;52.50;;;;;;6118973;23;20588;-87
2022/05/14 09:49:24;;;;;;;5.27;1.47;;;31.40;52.50;;;;;;6112637;23;20465;-86
2022/05/14 09:51:55;;;;;;;1.73;1.33;;;31.10;52.20;;;;;;6098096;23;20444;-88
2022/05/14 09:54:24;;;;;;;2.87;1.27;;;31.40;52.00;;;;;;6089041;23;20433;-89
2022/05/14 09:57:26;;;;;;;2.40;1.30;;;31.60;52.10;;;;;;6119643;23;20476;-87
2022/05/14 10:00:12;;;;;;;2.03;1.17;;;31.40;51.20;;;;;;6106530;23;20456;-87
2022/05/14 10:02:54;;;;;;;2.97;1.50;;;31.40;51.80;;;;;;6119604;23;21005;-87
2022/05/14 10:05:38;;;;;;;2.30;1.30;;;30.60;51.70;;;;;;6117195;23;21252;-88
2022/05/14 10:08:13;;;;;;;2.70;1.37;;;29.80;51.90;;;;;;6113946;23;20438;-87
2022/05/14 10:10:48;;;;;;;1.87;1.00;;;28.30;53.00;;;;;;6113626;23;20977;-86
2022/05/14 10:13:20;;;;;;;5.33;1.70;;;28.20;55.20;;;;;;6119695;23;20890;-85
2022/05/14 10:15:57;;;;;;;2.83;1.47;;;28.70;54.00;;;;;;6119487;23;20445;-87
2022/05/14 10:18:39;;;;;;;3.70;1.20;;;29.50;53.00;;;;;;6109261;23;20517;-87
2022/05/14 10:21:16;;;;;;;2.70;1.60;;;29.40;52.00;;;;;;6093048;23;20480;-88
2022/05/14 10:27:11;;;;;;;1.33;1.23;;;28.20;53.20;;;;;;6112266;23;20505;-84
2022/05/14 10:29:47;;;;;;;3.73;1.93;;;27.30;53.30;;;;;;6117571;23;20472;-82
2022/05/14 10:32:18;;;;;;;1.40;1.20;;;27.70;54.50;;;;;;6098460;23;20468;-82
2022/05/14 10:34:52;;;;;;;3.50;1.23;;;28.50;53.70;;;;;;6116980;23;20554;-82
2022/05/14 10:37:29;;;;;;;2.90;1.27;;;29.40;52.30;;;;;;6118153;23;20465;-81
2022/05/14 10:40:04;;;;;;;3.17;1.50;;;29.70;51.40;;;;;;6117388;23;20476;-82
2022/05/14 10:42:49;;;;;;;1.70;1.10;;;29.70;49.70;;;;;;6120023;23;20467;-83
2022/05/14 10:45:21;;;;;;;4.33;1.70;;;30.10;50.00;;;;;;6115922;23;20445;-83
2022/05/14 10:48:01;;;;;;;2.90;1.20;;;30.60;50.60;;;;;;6117488;23;20437;-83
2022/05/14 10:50:29;;;;;;;2.40;1.33;;;31.40;50.10;;;;;;6120076;23;20849;-83
2022/05/14 10:52:59;;;;;;;4.10;1.60;;;31.90;48.30;;;;;;6119798;23;20955;-83
2022/05/14 10:55:30;;;;;;;1.93;1.40;;;32.30;48.20;;;;;;6095731;23;20937;-83
2022/05/14 10:58:01;;;;;;;4.13;1.50;;;32.10;47.90;;;;;;6119224;23;20442;-83
2022/05/14 11:00:40;;;;;;;2.60;1.63;;;32.40;47.10;;;;;;6121252;23;20856;-83
2022/05/14 11:03:14;;;;;;;3.47;1.70;;;32.70;46.40;;;;;;6120194;23;20445;-82
2022/05/14 11:05:55;;;;;;;2.90;1.10;;;32.20;44.70;;;;;;6116333;23;20493;-82
2022/05/14 11:08:33;;;;;;;2.87;1.40;;;31.20;47.20;;;;;;6121218;23;20452;-81
2022/05/14 11:11:07;;;;;;;2.80;1.37;;;31.10;46.60;;;;;;6114562;23;20847;-81
2022/05/14 11:13:35;;;;;;;1.60;1.20;;;30.90;46.60;;;;;;6119652;23;20443;-82
2022/05/14 11:16:05;;;;;;;2.00;1.20;;;30.60;46.00;;;;;;6113942;23;20441;-81
2022/05/14 11:18:44;;;;;;;2.50;1.10;;;31.00;46.50;;;;;;6107207;23;20461;-81
2022/05/14 11:21:11;;;;;;;2.60;1.30;;;31.30;47.20;;;;;;6116487;23;20433;-83
2022/05/14 11:23:50;;;;;;;4.30;1.30;;;31.80;47.00;;;;;;6119010;23;20437;-82
2022/05/14 11:26:18;;;;;;;1.40;1.27;;;32.40;46.20;;;;;;6119822;23;20461;-83
2022/05/14 11:28:57;;;;;;;2.00;1.43;;;32.80;45.50;;;;;;6112917;23;20548;-82
2022/05/14 11:31:27;;;;;;;2.13;1.67;;;33.20;45.80;;;;;;6119406;23;20902;-81
2022/05/14 11:33:58;;;;;;;2.33;1.43;;;32.70;44.40;;;;;;6105037;23;20465;-82
2022/05/14 11:36:28;;;;;;;1.60;1.20;;;32.40;44.80;;;;;;6120976;23;20541;-82
2022/05/14 11:39:24;;;;;;;2.60;1.00;;;32.50;45.00;;;;;;6120621;23;20988;-82
2022/05/14 11:42:13;;;;;;;2.03;0.90;;;32.90;44.90;;;;;;6120336;23;20509;-82
2022/05/14 11:44:48;;;;;;;2.87;1.23;;;32.70;44.00;;;;;;6071608;23;20434;-82
2022/05/14 11:47:57;;;;;;;2.80;1.27;;;31.80;44.50;;;;;;6090732;23;20552;-83
2022/05/14 11:50:32;;;;;;;2.07;1.10;;;31.10;46.30;;;;;;5974017;24;20771;-83
2022/05/14 11:53:19;;;;;;;2.17;1.40;;;31.00;46.50;;;;;;6068613;23;20437;-83
2022/05/14 11:55:52;;;;;;;1.50;1.17;;;31.20;46.40;;;;;;6068704;23;20453;-82
2022/05/14 11:58:25;;;;;;;1.53;1.27;;;31.20;46.30;;;;;;6090706;23;20599;-82
2022/05/14 12:00:53;;;;;;;2.73;1.30;;;31.10;45.80;;;;;;6082260;23;20569;-82
2022/05/14 12:03:24;;;;;;;2.03;1.20;;;31.10;45.30;;;;;;6090433;23;20447;-82
2022/05/14 12:05:57;;;;;;;2.63;1.43;;;30.90;46.40;;;;;;6090520;23;20958;-82
2022/05/14 12:08:47;;;;;;;3.00;1.10;;;31.00;46.40;;;;;;6082112;23;20534;-82
2022/05/14 12:11:28;;;;;;;3.07;1.40;;;31.10;45.70;;;;;;6070531;23;20438;-82
2022/05/14 12:14:04;;;;;;;1.23;1.13;;;31.20;46.90;;;;;;6080010;23;20446;-82
2022/05/14 12:16:34;;;;;;;1.50;1.20;;;31.20;45.40;;;;;;6087275;23;20442;-82
2022/05/14 12:19:02;;;;;;;2.33;1.30;;;31.50;45.00;;;;;;6082200;23;20457;-81
2022/05/14 12:21:30;;;;;;;2.10;0.97;;;31.40;46.10;;;;;;6085238;23;20513;-82
2022/05/14 12:23:57;;;;;;;2.33;1.30;;;31.30;46.10;;;;;;6090321;23;20488;-82
2022/05/14 12:26:27;;;;;;;2.63;1.10;;;31.40;46.20;;;;;;6090749;23;20558;-81
2022/05/14 12:28:56;;;;;;;2.80;1.40;;;31.00;45.80;;;;;;6091395;23;20463;-82
2022/05/14 12:34:13;;;;;;;1.97;1.10;;;31.20;46.60;;;;;;6088919;23;20473;-82
2022/05/14 12:36:43;;;;;;;2.97;1.20;;;31.50;45.70;;;;;;6091035;23;20504;-82
2022/05/14 12:39:14;;;;;;;1.13;1.00;;;31.50;45.70;;;;;;6090811;23;20481;-81
2022/05/14 12:41:45;;;;;;;2.90;1.23;;;31.70;45.40;;;;;;6072509;23;20437;-81
2022/05/14 12:44:16;;;;;;;4.07;1.33;;;30.90;44.70;;;;;;6091515;23;20427;-81
2022/05/14 12:46:46;;;;;;;2.50;1.10;;;30.30;46.30;;;;;;6090975;23;20523;-81
2022/05/14 12:49:19;;;;;;;3.83;1.70;;;30.40;47.10;;;;;;6091303;23;20984;-81
2022/05/14 12:51:49;;;;;;;3.57;1.50;;;30.50;46.00;;;;;;6090279;23;20473;-82
2022/05/14 12:54:23;;;;;;;2.83;1.30;;;30.60;46.80;;;;;;6086734;23;20443;-82
2022/05/14 12:56:53;;;;;;;2.60;1.57;;;30.90;47.20;;;;;;6081783;23;20431;-81
2022/05/14 12:59:20;;;;;;;2.87;1.50;;;30.70;45.30;;;;;;6091388;23;20545;-81
2022/05/14 13:01:50;;;;;;;2.67;1.03;;;30.80;47.00;;;;;;6091187;23;20538;-82
2022/05/14 13:04:18;;;;;;;1.73;1.40;;;31.60;46.20;;;;;;6091319;23;20521;-81
2022/05/14 13:06:46;;;;;;;2.90;1.30;;;31.70;44.30;;;;;;6081303;23;21028;-82
2022/05/14 13:09:19;;;;;;;7.33;1.83;;;31.80;44.80;;;;;;6064654;23;20542;-82
2022/05/14 13:11:49;;;;;;;2.57;1.77;;;32.30;45.20;;;;;;6079002;23;20442;-82
2022/05/14 13:14:23;;;;;;;1.43;1.17;;;33.30;44.80;;;;;;6089715;23;20434;-82
2022/05/14 13:16:56;;;;;;;1.53;1.10;;;34.20;43.00;;;;;;6087976;23;20528;-82
2022/05/14 13:19:36;;;;;;;3.83;1.20;;;35.50;41.80;;;;;;6083593;23;20581;-82